Flight Track Log - Related Links

Times and Time Zones

All times are in EDT time to prevent confusion due to time zone crossing. See the N27XP flight status page for this flight to view local times or setup timezone preferences in your user account.

Time Position Orientation Groundspeed Altitude Reporting Facility
EDT Latitude Longitude Course Direction KTS MPH feet Rate Location/Type
Wed 07:45:51 35.3064 -79.4097 302° West 238 274 4,800  Level Washington Center
Wed 07:46:51 35.3453 -79.4983 298° West 282 325 7,800 2,400 Climbing Washington Center
Wed 07:47:51 35.3803 -79.5789 298° West 295 339 9,600 1,727 Climbing Washington Center
Wed 07:50:00 35.4631 -79.9094 302° West  Level FlightAware
Wed 07:50:16 35.4808 -79.8181 297° West 318 366 13,700  Level Atlanta Center
Wed 07:51:00 35.5144 -80.0122 302° West  Level FlightAware
Wed 07:51:16 35.5261 -79.9253 297° West 341 392 14,800  Level Atlanta Center
Wed 07:52:16 35.5739 -80.0403 297° West 367 422 15,000 600 Climbing Atlanta Center
Wed 07:53:16 35.6214 -80.1581 296° West 383 441 16,000 1,350 Climbing Atlanta Center
Wed 07:54:16 35.6731 -80.2706 300° West 376 433 17,700 1,650 Climbing Atlanta Center
Wed 07:55:16 35.7181 -80.3836 296° West 376 433 19,300 1,650 Climbing Atlanta Center
Wed 07:56:16 35.7694 -80.5042 298° West 371 427 21,000 1,550 Climbing Atlanta Center
Wed 07:57:16 35.8186 -80.6172 298° West 366 421 22,400 1,600 Climbing Atlanta Center
Wed 07:58:16 35.8656 -80.7281 298° West 371 427 24,200 1,800 Climbing Atlanta Center
Wed 07:59:16 35.9122 -80.8389 297° West 366 421 26,000 1,500 Climbing Atlanta Center
Wed 08:00:16 35.9611 -80.9525 298° West 366 421 27,200 1,000 Climbing Atlanta Center
Wed 08:01:16 36.0078 -81.0664 297° West 366 421 28,000 400 Climbing Atlanta Center
Wed 08:02:16 36.0586 -81.1903 297° West 389 448 28,000  Level Atlanta Center
Wed 08:03:16 36.1117 -81.3219 297° West 407 468 28,000  Level Atlanta Center
Wed 08:04:16 36.1667 -81.4564 297° West 427 491 28,000  Level Atlanta Center
Wed 08:05:16 36.2236 -81.5936 297° West 445 512 28,000  Level Atlanta Center
Wed 08:06:16 36.2786 -81.7311 296° West 440 506 28,000  Level Atlanta Center
Wed 08:07:16 36.3353 -81.8686 297° West 445 512 28,000  Level Atlanta Center
Wed 08:08:16 36.3856 -82.0039 295° West 436 502 28,000  Level Atlanta Center
Wed 08:10:47 36.5581 -82.3186 304° West 446 513 28,000  Level Indianapolis Center
Wed 08:11:49 36.6367 -82.4403 309° West 448 516 28,000  Level Indianapolis Center
Wed 08:12:51 36.7139 -82.5617 308° West 447 514 28,000  Level Indianapolis Center
Wed 08:13:52 36.7922 -82.6833 309° West 449 517 28,000  Level Indianapolis Center
Wed 08:14:54 36.8694 -82.8056 308° West 448 516 28,000  Level Indianapolis Center
Wed 08:15:56 36.9569 -82.9433 309° West 456 525 28,000  Level Indianapolis Center
Wed 08:16:57 37.0333 -83.0656 308° West 455 524 28,000  Level Indianapolis Center
Wed 08:17:59 37.1100 -83.1881 308° West 447 514 28,000  Level Indianapolis Center
Wed 08:19:01 37.1881 -83.3133 308° West 452 520 28,000  Level Indianapolis Center
Wed 08:20:02 37.2769 -83.4569 308° West 447 514 28,000  Level Indianapolis Center
Wed 08:21:04 37.3561 -83.5831 308° West 457 526 28,000  Level Indianapolis Center
Wed 08:22:05 37.4328 -83.7078 308° West 451 519 28,000  Level Indianapolis Center
Wed 08:23:07 37.5100 -83.8350 307° West 456 525 28,000  Level Indianapolis Center
Wed 08:24:09 37.5878 -83.9622 308° West 456 525 28,000  Level Indianapolis Center
Wed 08:25:10 37.6664 -84.0897 308° West 457 526 28,000  Level Indianapolis Center
Wed 08:26:12 37.7439 -84.2178 307° West 458 527 28,000  Level Indianapolis Center
Wed 08:27:13 37.8333 -84.3669 307° West 458 527 28,000 -390 Level Indianapolis Center
Wed 08:28:15 37.9106 -84.4942 308° West 457 526 27,200 -1,258 Descending Indianapolis Center
Wed 08:29:17 37.9864 -84.6242 307° West 458 527 25,400 -1,902 Descending Indianapolis Center
Wed 08:30:18 38.0642 -84.7522 308° West 458 527 23,300 -2,000 Descending Indianapolis Center
Wed 08:31:20 38.1383 -84.8764 307° West 444 511 21,300 -1,984 Descending Indianapolis Center
Wed 08:32:22 38.2089 -84.9969 307° West 424 488 19,200 -1,610 Descending Indianapolis Center
Wed 08:33:23 38.2775 -85.1117 307° West 410 472 18,000 -585 Descending Indianapolis Center
Wed 08:34:25 38.3453 -85.2258 307° West 410 472 18,000 -629 Level Indianapolis Center
Wed 08:35:27 38.4236 -85.3614 306° West 398 458 16,700 -1,415 Descending Indianapolis Center
Wed 08:36:28 38.4906 -85.4758 307° West 396 456 15,100 -1,610 Descending Indianapolis Center
Wed 08:37:30 38.5558 -85.5844 308° West 385 443 13,400 -1,790 Descending Indianapolis Center
Wed 08:38:32 38.6197 -85.6950 307° West 386 444 11,400 -1,951 Descending Indianapolis Center
Wed 08:39:33 38.6833 -85.8036 307° West 377 434 9,400 -1,707 Descending Indianapolis Center
Wed 08:40:35 38.7394 -85.8986 307° West 350 403 7,900 -1,355 Descending Indianapolis Center
Wed 08:41:37 38.7858 -85.9817 306° West 304 350 6,600 -1,171 Descending Indianapolis Center
Wed 08:42:38 38.8303 -86.0600 306° West 279 321 5,500 -780 Descending Indianapolis Center
Wed 08:43:40 38.8844 -86.1553 306° West 276 318 5,000 -242 Descending Indianapolis Center
Wed 08:44:42 38.9289 -86.2333 306° West 270 311 5,000  Level Indianapolis Center
Wed 08:45:44 38.9731 -86.3106 306° West 266 306 5,000  Level Indianapolis Center
Wed 08:46:45 39.0153 -86.3864 306° West 262 302 5,000 -195 Level Indianapolis Center
Wed 08:47:47 39.0561 -86.4583 306° West 252 290 4,600 -774 Descending Indianapolis Center
Wed 08:48:49 39.0947 -86.5242 307° West 236 272 3,400 -1,016 Descending Indianapolis Center
Wed 08:49:51 39.1458 -86.5622 330° Northwest 225 259 2,500 -683 Descending Indianapolis Center
Wed 08:50:52 39.1942 -86.5797 344° North 186 214 2,000 -488 Descending Indianapolis Center
Wed 08:51:54 39.1881 -86.6217 259° West 138 159 1,500 -339 Descending Indianapolis Center
Wed 08:52:56 39.1506 -86.6303 190° South 128 147 1,300 -194 Descending Indianapolis Center

Login

Don't have an account? Register now (free) for customized features, flight alerts, and more!